sensor_id;sensor_type;location;lat;lon;timestamp;pressure;altitude;pressure_sealevel;temperature;humidity
42001;BME280;27689;48.390;10.856;2023-11-21T00:01:03;95606.34;;;7.10;100.00
42001;BME280;27689;48.390;10.856;2023-11-21T00:03:48;95590.28;;;7.14;100.00
42001;BME280;27689;48.390;10.856;2023-11-21T00:06:32;95591.78;;;7.17;100.00
42001;BME280;27689;48.390;10.856;2023-11-21T00:09:16;95585.22;;;7.22;100.00
42001;BME280;27689;48.390;10.856;2023-11-21T00:12:02;95581.50;;;7.25;100.00
42001;BME280;27689;48.390;10.856;2023-11-21T00:14:46;95576.44;;;7.23;100.00
42001;BME280;27689;48.390;10.856;2023-11-21T00:17:30;95577.13;;;7.25;100.00
42001;BME280;27689;48.390;10.856;2023-11-21T00:20:13;95582.84;;;7.29;100.00
42001;BME280;27689;48.390;10.856;2023-11-21T00:22:57;95587.94;;;7.30;100.00
42001;BME280;27689;48.390;10.856;2023-11-21T00:25:43;95590.25;;;7.33;100.00
42001;BME280;27689;48.390;10.856;2023-11-21T00:28:27;95588.47;;;7.34;100.00
42001;BME280;27689;48.390;10.856;2023-11-21T00:31:11;95580.81;;;7.32;100.00
42001;BME280;27689;48.390;10.856;2023-11-21T00:33:56;95576.97;;;7.36;100.00
42001;BME280;27689;48.390;10.856;2023-11-21T00:36:40;95583.41;;;7.32;100.00
42001;BME280;27689;48.390;10.856;2023-11-21T00:39:24;95578.34;;;7.40;100.00
42001;BME280;27689;48.390;10.856;2023-11-21T00:42:09;95581.06;;;7.39;100.00
42001;BME280;27689;48.390;10.856;2023-11-21T00:44:54;95583.25;;;7.43;100.00
42001;BME280;27689;48.390;10.856;2023-11-21T00:47:38;95595.88;;;7.38;100.00
42001;BME280;27689;48.390;10.856;2023-11-21T00:50:22;95595.19;;;7.36;100.00
42001;BME280;27689;48.390;10.856;2023-11-21T00:53:06;95596.56;;;7.40;100.00
42001;BME280;27689;48.390;10.856;2023-11-21T00:55:51;95602.06;;;7.37;100.00
42001;BME280;27689;48.390;10.856;2023-11-21T00:58:40;95600.00;;;7.31;100.00
42001;BME280;27689;48.390;10.856;2023-11-21T01:01:30;95603.56;;;7.30;100.00
42001;BME280;27689;48.390;10.856;2023-11-21T01:04:14;95601.91;;;7.29;100.00
42001;BME280;27689;48.390;10.856;2023-11-21T01:06:58;95601.38;;;7.35;100.00
42001;BME280;27689;48.390;10.856;2023-11-21T01:09:42;95602.59;;;7.31;100.00
42001;BME280;27689;48.390;10.856;2023-11-21T01:12:28;95604.66;;;7.37;100.00
42001;BME280;27689;48.390;10.856;2023-11-21T01:15:11;95606.81;;;7.42;100.00
42001;BME280;27689;48.390;10.856;2023-11-21T01:17:55;95605.03;;;7.42;100.00
42001;BME280;27689;48.390;10.856;2023-11-21T01:20:39;95606.31;;;7.38;100.00
42001;BME280;27689;48.390;10.856;2023-11-21T01:23:23;95607.38;;;7.46;100.00
42001;BME280;27689;48.390;10.856;2023-11-21T01:26:07;95613.97;;;7.50;100.00
42001;BME280;27689;48.390;10.856;2023-11-21T01:28:52;95603.84;;;7.37;100.00
42001;BME280;27689;48.390;10.856;2023-11-21T01:31:36;95617.53;;;7.29;100.00
42001;BME280;27689;48.390;10.856;2023-11-21T01:34:20;95608.66;;;7.22;100.00
42001;BME280;27689;48.390;10.856;2023-11-21T01:37:05;95607.16;;;7.20;100.00
42001;BME280;27689;48.390;10.856;2023-11-21T01:39:49;95609.88;;;7.18;100.00
42001;BME280;27689;48.390;10.856;2023-11-21T01:42:33;95618.94;;;7.14;100.00
42001;BME280;27689;48.390;10.856;2023-11-21T01:45:18;95602.34;;;7.15;100.00
42001;BME280;27689;48.390;10.856;2023-11-21T01:48:03;95612.09;;;7.23;100.00
42001;BME280;27689;48.390;10.856;2023-11-21T01:50:47;95608.78;;;7.21;100.00
42001;BME280;27689;48.390;10.856;2023-11-21T01:53:32;95611.53;;;7.19;100.00
42001;BME280;27689;48.390;10.856;2023-11-21T01:56:16;95606.31;;;7.19;100.00
42001;BME280;27689;48.390;10.856;2023-11-21T01:59:00;95608.94;;;7.19;100.00
42001;BME280;27689;48.390;10.856;2023-11-21T02:01:44;95603.84;;;7.18;100.00
42001;BME280;27689;48.390;10.856;2023-11-21T02:04:31;95616.06;;;7.17;100.00
42001;BME280;27689;48.390;10.856;2023-11-21T02:07:15;95605.09;;;7.14;100.00
42001;BME280;27689;48.390;10.856;2023-11-21T02:09:59;95604.81;;;7.07;100.00
42001;BME280;27689;48.390;10.856;2023-11-21T02:12:44;95596.06;;;7.08;100.00
42001;BME280;27689;48.390;10.856;2023-11-21T02:15:28;95603.84;;;7.18;100.00
42001;BME280;27689;48.390;10.856;2023-11-21T02:18:12;95596.03;;;7.18;100.00
42001;BME280;27689;48.390;10.856;2023-11-21T02:20:56;95599.47;;;7.18;100.00
42001;BME280;27689;48.390;10.856;2023-11-21T02:23:40;95592.38;;;7.11;100.00
42001;BME280;27689;48.390;10.856;2023-11-21T02:26:28;95594.41;;;7.07;100.00
42001;BME280;27689;48.390;10.856;2023-11-21T02:29:12;95583.31;;;6.95;100.00
42001;BME280;27689;48.390;10.856;2023-11-21T02:31:57;95577.97;;;6.97;100.00
42001;BME280;27689;48.390;10.856;2023-11-21T02:34:41;95587.56;;;6.96;100.00
42001;BME280;27689;48.390;10.856;2023-11-21T02:37:27;95578.94;;;6.96;100.00
42001;BME280;27689;48.390;10.856;2023-11-21T02:40:11;95584.16;;;6.96;100.00
42001;BME280;27689;48.390;10.856;2023-11-21T02:43:01;95583.56;;;7.02;100.00
42001;BME280;27689;48.390;10.856;2023-11-21T02:45:45;95583.31;;;7.05;100.00
42001;BME280;27689;48.390;10.856;2023-11-21T02:48:29;95577.81;;;7.08;100.00
42001;BME280;27689;48.390;10.856;2023-11-21T02:51:14;95578.25;;;6.94;100.00
42001;BME280;27689;48.390;10.856;2023-11-21T02:54:00;95574.66;;;6.85;100.00
42001;BME280;27689;48.390;10.856;2023-11-21T02:56:46;95560.16;;;6.73;100.00
42001;BME280;27689;48.390;10.856;2023-11-21T02:59:30;95563.19;;;6.78;100.00
42001;BME280;27689;48.390;10.856;2023-11-21T03:02:14;95568.25;;;6.80;100.00
42001;BME280;27689;48.390;10.856;2023-11-21T03:04:59;95558.66;;;6.80;100.00
42001;BME280;27689;48.390;10.856;2023-11-21T03:07:44;95564.81;;;6.79;100.00
42001;BME280;27689;48.390;10.856;2023-11-21T03:10:28;95564.53;;;6.72;100.00
42001;BME280;27689;48.390;10.856;2023-11-21T03:13:11;95567.97;;;6.73;100.00
42001;BME280;27689;48.390;10.856;2023-11-21T03:15:55;95562.75;;;6.73;100.00
42001;BME280;27689;48.390;10.856;2023-11-21T03:18:40;95561.09;;;6.72;100.00
42001;BME280;27689;48.390;10.856;2023-11-21T03:21:24;95560.84;;;6.75;100.00
42001;BME280;27689;48.390;10.856;2023-11-21T03:24:08;95558.50;;;6.72;100.00
42001;BME280;27689;48.390;10.856;2023-11-21T03:26:52;95558.94;;;6.67;100.00
42001;BME280;27689;48.390;10.856;2023-11-21T03:29:36;95561.94;;;6.72;100.00
42001;BME280;27689;48.390;10.856;2023-11-21T03:32:20;95565.78;;;6.78;100.00
42001;BME280;27689;48.390;10.856;2023-11-21T03:35:04;95566.59;;;6.88;100.00
42001;BME280;27689;48.390;10.856;2023-11-21T03:37:49;95563.31;;;6.77;100.00
42001;BME280;27689;48.390;10.856;2023-11-21T03:40:33;95573.16;;;6.73;100.00
42001;BME280;27689;48.390;10.856;2023-11-21T03:43:17;95581.25;;;6.70;100.00
42001;BME280;27689;48.390;10.856;2023-11-21T03:46:01;95581.38;;;6.68;100.00
42001;BME280;27689;48.390;10.856;2023-11-21T03:48:46;95578.38;;;6.63;100.00
42001;BME280;27689;48.390;10.856;2023-11-21T03:51:30;95581.13;;;6.62;100.00
42001;BME280;27689;48.390;10.856;2023-11-21T03:54:14;95583.44;;;6.65;100.00
42001;BME280;27689;48.390;10.856;2023-11-21T03:56:58;95585.91;;;6.66;100.00
42001;BME280;27689;48.390;10.856;2023-11-21T03:59:42;95586.59;;;6.59;100.00
42001;BME280;27689;48.390;10.856;2023-11-21T04:02:27;95583.59;;;6.63;100.00
42001;BME280;27689;48.390;10.856;2023-11-21T04:05:11;95583.44;;;6.65;100.00
42001;BME280;27689;48.390;10.856;2023-11-21T04:07:56;95581.94;;;6.62;100.00
42001;BME280;27689;48.390;10.856;2023-11-21T04:10:40;95581.38;;;6.68;100.00
42001;BME280;27689;48.390;10.856;2023-11-21T04:13:24;95584.13;;;6.77;100.00
42001;BME280;27689;48.390;10.856;2023-11-21T04:16:08;95585.22;;;6.74;100.00
42001;BME280;27689;48.390;10.856;2023-11-21T04:18:52;95585.22;;;6.74;100.00
42001;BME280;27689;48.390;10.856;2023-11-21T04:21:37;95585.09;;;6.76;100.00
42001;BME280;27689;48.390;10.856;2023-11-21T04:24:21;95585.91;;;6.76;100.00
42001;BME280;27689;48.390;10.856;2023-11-21T04:27:05;95585.34;;;6.72;100.00
42001;BME280;27689;48.390;10.856;2023-11-21T04:29:49;95575.38;;;6.78;100.00
42001;BME280;27689;48.390;10.856;2023-11-21T04:32:33;95577.16;;;6.77;100.00
42001;BME280;27689;48.390;10.856;2023-11-21T04:35:18;95579.63;;;6.79;100.00
42001;BME280;27689;48.390;10.856;2023-11-21T04:38:01;95574.69;;;6.76;100.00
42001;BME280;27689;48.390;10.856;2023-11-21T04:40:46;95568.53;;;6.67;100.00
42001;BME280;27689;48.390;10.856;2023-11-21T04:43:30;95570.16;;;6.78;100.00
42001;BME280;27689;48.390;10.856;2023-11-21T04:46:14;95567.13;;;6.72;100.00
42001;BME280;27689;48.390;10.856;2023-11-21T04:48:58;95572.91;;;6.66;100.00
42001;BME280;27689;48.390;10.856;2023-11-21T04:51:42;95578.94;;;6.67;100.00
42001;BME280;27689;48.390;10.856;2023-11-21T04:54:26;95576.03;;;6.70;100.00
42001;BME280;27689;48.390;10.856;2023-11-21T04:57:10;95574.25;;;6.70;100.00
42001;BME280;27689;48.390;10.856;2023-11-21T04:59:54;95585.34;;;6.72;100.00
42001;BME280;27689;48.390;10.856;2023-11-21T05:02:40;95587.97;;;6.72;100.00
42001;BME280;27689;48.390;10.856;2023-11-21T05:05:25;95584.97;;;6.67;100.00
42001;BME280;27689;48.390;10.856;2023-11-21T05:08:09;95592.91;;;6.66;100.00
42001;BME280;27689;48.390;10.856;2023-11-21T05:10:53;95598.25;;;6.64;100.00
42001;BME280;27689;48.390;10.856;2023-11-21T05:13:37;95599.47;;;6.70;100.00
42001;BME280;27689;48.390;10.856;2023-11-21T05:16:25;95603.44;;;6.64;100.00
42001;BME280;27689;48.390;10.856;2023-11-21T05:19:11;95602.06;;;6.60;100.00
42001;BME280;27689;48.390;10.856;2023-11-21T05:21:56;95598.22;;;6.55;100.00
42001;BME280;27689;48.390;10.856;2023-11-21T05:24:40;95599.19;;;6.63;100.00
42001;BME280;27689;48.390;10.856;2023-11-21T05:27:24;95596.03;;;6.60;100.00
42001;BME280;27689;48.390;10.856;2023-11-21T05:30:08;95600.69;;;6.56;100.00
42001;BME280;27689;48.390;10.856;2023-11-21T05:32:55;95601.22;;;6.50;100.00
42001;BME280;27689;48.390;10.856;2023-11-21T05:35:39;95604.94;;;6.48;100.00
42001;BME280;27689;48.390;10.856;2023-11-21T05:38:23;95600.94;;;6.53;100.00
42001;BME280;27689;48.390;10.856;2023-11-21T05:41:08;95609.31;;;6.47;100.00
42001;BME280;27689;48.390;10.856;2023-11-21T05:43:54;95606.13;;;6.44;100.00
42001;BME280;27689;48.390;10.856;2023-11-21T05:46:38;95612.44;;;6.41;100.00
42001;BME280;27689;48.390;10.856;2023-11-21T05:49:22;95614.78;;;6.44;100.00
42001;BME280;27689;48.390;10.856;2023-11-21T05:52:06;95602.19;;;6.49;100.00
42001;BME280;27689;48.390;10.856;2023-11-21T05:54:50;95608.47;;;6.47;100.00
42001;BME280;27689;48.390;10.856;2023-11-21T05:57:34;95605.88;;;6.37;100.00
42001;BME280;27689;48.390;10.856;2023-11-21T06:00:21;95619.41;;;6.41;100.00
42001;BME280;27689;48.390;10.856;2023-11-21T06:03:05;95612.16;;;6.44;100.00
42001;BME280;27689;48.390;10.856;2023-11-21T06:05:49;95609.28;;;6.38;100.00
42001;BME280;27689;48.390;10.856;2023-11-21T06:08:33;95618.19;;;6.35;100.00
42001;BME280;27689;48.390;10.856;2023-11-21T06:11:17;95617.75;;;6.30;100.00
42001;BME280;27689;48.390;10.856;2023-11-21T06:14:01;95619.25;;;6.23;100.00
42001;BME280;27689;48.390;10.856;2023-11-21T06:16:46;95614.56;;;6.17;100.00
42001;BME280;27689;48.390;10.856;2023-11-21T06:19:30;95625.09;;;6.15;100.00
42001;BME280;27689;48.390;10.856;2023-11-21T06:22:14;95626.19;;;6.13;100.00
42001;BME280;27689;48.390;10.856;2023-11-21T06:24:58;95636.72;;;6.11;100.00
42001;BME280;27689;48.390;10.856;2023-11-21T06:27:43;95636.56;;;6.13;100.00
42001;BME280;27689;48.390;10.856;2023-11-21T06:30:28;95633.28;;;6.11;100.00
42001;BME280;27689;48.390;10.856;2023-11-21T06:33:12;95638.91;;;6.06;100.00
42001;BME280;27689;48.390;10.856;2023-11-21T06:35:56;95632.19;;;6.13;100.00
42001;BME280;27689;48.390;10.856;2023-11-21T06:38:40;95640.38;;;6.09;100.00
42001;BME280;27689;48.390;10.856;2023-11-21T06:41:24;95643.97;;;6.08;100.00
42001;BME280;27689;48.390;10.856;2023-11-21T06:44:08;95641.31;;;5.98;100.00
42001;BME280;27689;48.390;10.856;2023-11-21T06:46:52;95651.13;;;5.94;100.00
42001;BME280;27689;48.390;10.856;2023-11-21T06:49:36;95659.63;;;5.96;100.00
42001;BME280;27689;48.390;10.856;2023-11-21T06:52:22;95659.38;;;5.99;100.00
42001;BME280;27689;48.390;10.856;2023-11-21T06:55:07;95669.66;;;6.01;100.00
42001;BME280;27689;48.390;10.856;2023-11-21T06:57:52;95666.81;;;6.04;100.00
42001;BME280;27689;48.390;10.856;2023-11-21T07:00:36;95671.19;;;6.04;100.00
42001;BME280;27689;48.390;10.856;2023-11-21T07:03:20;95668.56;;;6.04;100.00
42001;BME280;27689;48.390;10.856;2023-11-21T07:06:05;95671.44;;;6.00;100.00
42001;BME280;27689;48.390;10.856;2023-11-21T07:08:49;95670.09;;;6.06;100.00
42001;BME280;27689;48.390;10.856;2023-11-21T07:11:34;95672.94;;;6.03;100.00
42001;BME280;27689;48.390;10.856;2023-11-21T07:14:18;95672.41;;;6.09;100.00
42001;BME280;27689;48.390;10.856;2023-11-21T07:17:03;95679.13;;;6.12;100.00
42001;BME280;27689;48.390;10.856;2023-11-21T07:19:47;95672.97;;;6.13;100.00
42001;BME280;27689;48.390;10.856;2023-11-21T07:22:31;95676.28;;;6.15;100.00
42001;BME280;27689;48.390;10.856;2023-11-21T07:25:15;95675.47;;;6.24;100.00
42001;BME280;27689;48.390;10.856;2023-11-21T07:27:59;95690.44;;;6.31;100.00
42001;BME280;27689;48.390;10.856;2023-11-21T07:30:44;95687.75;;;6.43;100.00
42001;BME280;27689;48.390;10.856;2023-11-21T07:33:28;95688.75;;;6.51;100.00
42001;BME280;27689;48.390;10.856;2023-11-21T07:36:13;95700.81;;;6.62;100.00
42001;BME280;27689;48.390;10.856;2023-11-21T07:38:57;95690.81;;;6.57;100.00
42001;BME280;27689;48.390;10.856;2023-11-21T07:41:41;95693.47;;;6.77;100.00
42001;BME280;27689;48.390;10.856;2023-11-21T07:44:32;95708.13;;;6.78;100.00
42001;BME280;27689;48.390;10.856;2023-11-21T07:47:15;95703.31;;;6.83;100.00
42001;BME280;27689;48.390;10.856;2023-11-21T07:50:01;95712.13;;;6.91;100.00
42001;BME280;27689;48.390;10.856;2023-11-21T07:52:46;95709.09;;;6.86;100.00
42001;BME280;27689;48.390;10.856;2023-11-21T07:55:30;95713.53;;;7.05;100.00
42001;BME280;27689;48.390;10.856;2023-11-21T07:58:16;95716.13;;;7.05;100.00
42001;BME280;27689;48.390;10.856;2023-11-21T08:01:00;95720.66;;;7.13;100.00
42001;BME280;27689;48.390;10.856;2023-11-21T08:03:44;95727.38;;;7.15;100.00
42001;BME280;27689;48.390;10.856;2023-11-21T08:06:32;95719.97;;;7.20;100.00
42001;BME280;27689;48.390;10.856;2023-11-21T08:09:16;95718.19;;;7.21;100.00
42001;BME280;27689;48.390;10.856;2023-11-21T08:12:01;95719.59;;;7.25;100.00
42001;BME280;27689;48.390;10.856;2023-11-21T08:14:46;95716.84;;;7.36;100.00
42001;BME280;27689;48.390;10.856;2023-11-21T08:17:30;95714.91;;;7.48;100.00
42001;BME280;27689;48.390;10.856;2023-11-21T08:20:15;95695.03;;;7.56;100.00
42001;BME280;27689;48.390;10.856;2023-11-21T08:23:02;95717.38;;;7.78;100.00
42001;BME280;27689;48.390;10.856;2023-11-21T08:25:46;95706.34;;;7.94;100.00
42001;BME280;27689;48.390;10.856;2023-11-21T08:28:30;95709.66;;;7.96;100.00
42001;BME280;27689;48.390;10.856;2023-11-21T08:31:14;95709.94;;;7.93;100.00
42001;BME280;27689;48.390;10.856;2023-11-21T08:33:58;95709.66;;;7.96;100.00
42001;BME280;27689;48.390;10.856;2023-11-21T08:36:43;95717.59;;;8.04;100.00
42001;BME280;27689;48.390;10.856;2023-11-21T08:39:27;95709.25;;;8.00;100.00
42001;BME280;27689;48.390;10.856;2023-11-21T08:42:11;95718.03;;;7.99;100.00
42001;BME280;27689;48.390;10.856;2023-11-21T08:44:58;95714.72;;;7.97;100.00
42001;BME280;27689;48.390;10.856;2023-11-21T08:47:43;95719.81;;;7.99;100.00
42001;BME280;27689;48.390;10.856;2023-11-21T08:50:27;95726.41;;;7.93;100.00
42001;BME280;27689;48.390;10.856;2023-11-21T08:53:11;95732.47;;;7.84;100.00
42001;BME280;27689;48.390;10.856;2023-11-21T08:55:56;95732.03;;;7.89;100.00
42001;BME280;27689;48.390;10.856;2023-11-21T08:58:40;95731.34;;;7.87;100.00
42001;BME280;27689;48.390;10.856;2023-11-21T09:01:25;95736.72;;;7.75;100.00
42001;BME280;27689;48.390;10.856;2023-11-21T09:04:09;95746.44;;;7.73;100.00
42001;BME280;27689;48.390;10.856;2023-11-21T09:06:54;95739.75;;;7.71;100.00
42001;BME280;27689;48.390;10.856;2023-11-21T09:09:37;95742.19;;;7.72;100.00
42001;BME280;27689;48.390;10.856;2023-11-21T09:12:21;95744.66;;;7.74;100.00
42001;BME280;27689;48.390;10.856;2023-11-21T09:15:07;95740.41;;;7.73;100.00
42001;BME280;27689;48.390;10.856;2023-11-21T09:17:51;95751.13;;;7.79;100.00
42001;BME280;27689;48.390;10.856;2023-11-21T09:20:35;95752.47;;;7.93;100.00
42001;BME280;27689;48.390;10.856;2023-11-21T09:23:18;95749.19;;;8.01;100.00
42001;BME280;27689;48.390;10.856;2023-11-21T09:26:02;95752.59;;;8.01;100.00
42001;BME280;27689;48.390;10.856;2023-11-21T09:28:47;95756.03;;;8.11;100.00
42001;BME280;27689;48.390;10.856;2023-11-21T09:31:31;95756.03;;;8.11;100.00
42001;BME280;27689;48.390;10.856;2023-11-21T09:34:17;95757.13;;;8.09;100.00
42001;BME280;27689;48.390;10.856;2023-11-21T09:37:01;95751.09;;;8.08;100.00
42001;BME280;27689;48.390;10.856;2023-11-21T09:39:49;95762.19;;;8.20;100.00
42001;BME280;27689;48.390;10.856;2023-11-21T09:42:39;95759.97;;;8.25;100.00
42001;BME280;27689;48.390;10.856;2023-11-21T09:45:27;95752.44;;;8.22;100.00
42001;BME280;27689;48.390;10.856;2023-11-21T09:48:15;95772.19;;;8.25;100.00
42001;BME280;27689;48.390;10.856;2023-11-21T09:51:01;95767.25;;;8.22;100.00
42001;BME280;27689;48.390;10.856;2023-11-21T09:53:49;95768.34;;;8.29;100.00
42001;BME280;27689;48.390;10.856;2023-11-21T09:56:39;95758.19;;;8.35;100.00
42001;BME280;27689;48.390;10.856;2023-11-21T09:59:24;95765.69;;;8.48;100.00
42001;BME280;27689;48.390;10.856;2023-11-21T10:02:08;95761.66;;;8.63;100.00
42001;BME280;27689;48.390;10.856;2023-11-21T10:04:56;95753.34;;;8.50;100.00
42001;BME280;27689;48.390;10.856;2023-11-21T10:07:42;95750.31;;;8.55;100.00
42001;BME280;27689;48.390;10.856;2023-11-21T10:10:29;95755.53;;;8.55;100.00
42001;BME280;27689;48.390;10.856;2023-11-21T10:13:17;95761.72;;;8.54;100.00
42001;BME280;27689;48.390;10.856;2023-11-21T10:16:02;95762.38;;;8.56;100.00
42001;BME280;27689;48.390;10.856;2023-11-21T10:18:51;95763.16;;;8.66;100.00
42001;BME280;27689;48.390;10.856;2023-11-21T10:21:38;95754.72;;;8.81;100.00
42001;BME280;27689;48.390;10.856;2023-11-21T10:24:22;95768.41;;;8.93;100.00
42001;BME280;27689;48.390;10.856;2023-11-21T10:27:06;95763.22;;;9.11;100.00
42001;BME280;27689;48.390;10.856;2023-11-21T10:29:51;95755.56;;;9.27;100.00
42001;BME280;27689;48.390;10.856;2023-11-21T10:32:35;95762.06;;;9.41;100.00
42001;BME280;27689;48.390;10.856;2023-11-21T10:35:19;95755.16;;;9.49;100.00
42001;BME280;27689;48.390;10.856;2023-11-21T10:38:03;95750.13;;;9.56;100.00
42001;BME280;27689;48.390;10.856;2023-11-21T10:40:47;95753.72;;;9.55;100.00
42001;BME280;27689;48.390;10.856;2023-11-21T10:43:33;95750.94;;;9.39;100.00
42001;BME280;27689;48.390;10.856;2023-11-21T10:46:17;95756.03;;;9.58;100.00
42001;BME280;27689;48.390;10.856;2023-11-21T10:49:01;95754.44;;;9.65;100.00
42001;BME280;27689;48.390;10.856;2023-11-21T10:51:45;95751.41;;;9.70;100.00
42001;BME280;27689;48.390;10.856;2023-11-21T10:54:32;95750.28;;;9.72;100.00
42001;BME280;27689;48.390;10.856;2023-11-21T10:57:18;95748.72;;;9.62;100.00
42001;BME280;27689;48.390;10.856;2023-11-21T11:00:02;95749.31;;;9.55;100.00
42001;BME280;27689;48.390;10.856;2023-11-21T11:02:53;95741.03;;;9.60;100.00
42001;BME280;27689;48.390;10.856;2023-11-21T11:05:42;95742.19;;;9.66;100.00
42001;BME280;27689;48.390;10.856;2023-11-21T11:08:29;95749.41;;;9.64;100.00
42001;BME280;27689;48.390;10.856;2023-11-21T11:11:13;95752.31;;;9.61;100.00
42001;BME280;27689;48.390;10.856;2023-11-21T11:13:58;95754.16;;;9.50;100.00
42001;BME280;27689;48.390;10.856;2023-11-21T11:16:44;95745.34;;;9.51;100.00
42001;BME280;27689;48.390;10.856;2023-11-21T11:19:28;95750.28;;;9.54;100.00
42001;BME280;27689;48.390;10.856;2023-11-21T11:32:41;95743.81;;;10.02;100.00
42001;BME280;27689;48.390;10.856;2023-11-21T11:38:35;95734.66;;;10.24;98.93
42001;BME280;27689;48.390;10.856;2023-11-21T11:41:32;95738.03;;;10.42;98.88
42001;BME280;27689;48.390;10.856;2023-11-21T11:47:35;95741.88;;;10.56;98.32
42001;BME280;27689;48.390;10.856;2023-11-21T11:50:23;95744.16;;;10.51;98.12
42001;BME280;27689;48.390;10.856;2023-11-21T11:53:14;95740.41;;;10.28;95.65
42001;BME280;27689;48.390;10.856;2023-11-21T11:59:10;95738.28;;;10.23;93.72
42001;BME280;27689;48.390;10.856;2023-11-21T12:01:56;95739.78;;;10.08;95.77
42001;BME280;27689;48.390;10.856;2023-11-21T12:04:41;95746.88;;;9.98;96.87
42001;BME280;27689;48.390;10.856;2023-11-21T12:07:40;95751.91;;;9.91;96.84
42001;BME280;27689;48.390;10.856;2023-11-21T12:10:29;95744.75;;;9.93;97.75
42001;BME280;27689;48.390;10.856;2023-11-21T12:13:13;95736.56;;;9.96;98.24
42001;BME280;27689;48.390;10.856;2023-11-21T12:15:58;95734.91;;;9.95;97.59
42001;BME280;27689;48.390;10.856;2023-11-21T12:18:42;95739.84;;;9.98;96.64
42001;BME280;27689;48.390;10.856;2023-11-21T12:21:26;95736.50;;;9.88;96.58
42001;BME280;27689;48.390;10.856;2023-11-21T12:24:11;95741.03;;;9.78;98.42
42001;BME280;27689;48.390;10.856;2023-11-21T12:26:57;95738.22;;;9.79;98.08
42001;BME280;27689;48.390;10.856;2023-11-21T12:29:41;95732.78;;;9.73;98.41
42001;BME280;27689;48.390;10.856;2023-11-21T12:32:25;95741.75;;;9.70;98.96
42001;BME280;27689;48.390;10.856;2023-11-21T12:35:09;95742.72;;;9.69;98.07
42001;BME280;27689;48.390;10.856;2023-11-21T12:37:57;95743.94;;;9.75;97.85
42001;BME280;27689;48.390;10.856;2023-11-21T12:40:41;95745.44;;;9.60;98.64
42001;BME280;27689;48.390;10.856;2023-11-21T12:43:25;95747.38;;;9.58;99.49
42001;BME280;27689;48.390;10.856;2023-11-21T12:46:12;95751.25;;;9.53;99.73
42001;BME280;27689;48.390;10.856;2023-11-21T12:48:57;95746.09;;;9.44;100.00
42001;BME280;27689;48.390;10.856;2023-11-21T12:51:42;95757.91;;;9.48;100.00
42001;BME280;27689;48.390;10.856;2023-11-21T12:54:27;95766.19;;;9.43;100.00
42001;BME280;27689;48.390;10.856;2023-11-21T12:57:11;95754.75;;;9.44;100.00
42001;BME280;27689;48.390;10.856;2023-11-21T12:59:58;95751.63;;;9.41;100.00
42001;BME280;27689;48.390;10.856;2023-11-21T13:02:44;95762.38;;;9.38;100.00
42001;BME280;27689;48.390;10.856;2023-11-21T13:05:38;95762.59;;;9.44;100.00
42001;BME280;27689;48.390;10.856;2023-11-21T13:08:25;95760.66;;;9.46;100.00
42001;BME280;27689;48.390;10.856;2023-11-21T13:11:10;95762.81;;;9.51;100.00
42001;BME280;27689;48.390;10.856;2023-11-21T13:13:55;95756.84;;;9.59;100.00
42001;BME280;27689;48.390;10.856;2023-11-21T13:16:39;95767.53;;;9.65;99.91
42001;BME280;27689;48.390;10.856;2023-11-21T13:19:29;95768.75;;;9.71;100.00
42001;BME280;27689;48.390;10.856;2023-11-21T13:22:13;95765.25;;;9.62;100.00
42001;BME280;27689;48.390;10.856;2023-11-21T13:24:57;95770.00;;;9.67;100.00
42001;BME280;27689;48.390;10.856;2023-11-21T13:27:42;95775.09;;;9.86;100.00
42001;BME280;27689;48.390;10.856;2023-11-21T13:30:27;95777.63;;;9.78;100.00
42001;BME280;27689;48.390;10.856;2023-11-21T13:33:17;95780.31;;;9.86;100.00
42001;BME280;27689;48.390;10.856;2023-11-21T13:36:05;95784.81;;;9.76;100.00
42001;BME280;27689;48.390;10.856;2023-11-21T13:38:53;95787.78;;;9.45;100.00
42001;BME280;27689;48.390;10.856;2023-11-21T13:41:37;95782.88;;;9.15;100.00
42001;BME280;27689;48.390;10.856;2023-11-21T13:44:22;95795.16;;;9.32;100.00
42001;BME280;27689;48.390;10.856;2023-11-21T13:47:18;95784.34;;;9.45;100.00
42001;BME280;27689;48.390;10.856;2023-11-21T13:50:03;95788.00;;;9.52;100.00
42001;BME280;27689;48.390;10.856;2023-11-21T13:52:49;95788.81;;;9.52;100.00
42001;BME280;27689;48.390;10.856;2023-11-21T13:55:36;95795.16;;;9.50;100.00
42001;BME280;27689;48.390;10.856;2023-11-21T13:58:21;95799.88;;;9.46;100.00
42001;BME280;27689;48.390;10.856;2023-11-21T14:01:27;95804.50;;;9.35;100.00
42001;BME280;27689;48.390;10.856;2023-11-21T14:04:13;95816.06;;;9.32;100.00
42001;BME280;27689;48.390;10.856;2023-11-21T14:07:00;95812.78;;;9.30;100.00
42001;BME280;27689;48.390;10.856;2023-11-21T14:09:54;95812.66;;;9.22;100.00
42001;BME280;27689;48.390;10.856;2023-11-21T14:12:40;95814.38;;;9.13;100.00
42001;BME280;27689;48.390;10.856;2023-11-21T14:15:26;95820.03;;;9.09;100.00
42001;BME280;27689;48.390;10.856;2023-11-21T14:18:12;95825.06;;;8.93;100.00
42001;BME280;27689;48.390;10.856;2023-11-21T14:21:00;95831.84;;;8.86;100.00
42001;BME280;27689;48.390;10.856;2023-11-21T14:23:44;95834.31;;;8.77;100.00
42001;BME280;27689;48.390;10.856;2023-11-21T14:26:29;95837.75;;;8.78;100.00
42001;BME280;27689;48.390;10.856;2023-11-21T14:29:18;95843.13;;;8.76;100.00
42001;BME280;27689;48.390;10.856;2023-11-21T14:32:08;95832.84;;;8.65;100.00
42001;BME280;27689;48.390;10.856;2023-11-21T14:34:52;95835.88;;;8.61;100.00
42001;BME280;27689;48.390;10.856;2023-11-21T14:37:37;95826.00;;;8.55;100.00
42001;BME280;27689;48.390;10.856;2023-11-21T14:40:21;95838.38;;;8.53;100.00
42001;BME280;27689;48.390;10.856;2023-11-21T14:43:08;95837.97;;;8.47;100.00